W. J. Authement — WDE7846 — position and weather

sailwx.info

Track history (hours):
 
Tides and Currents Weather Stations Pressure Air Temp Water Temp Dewpoint Dewpoint Depression Visibility Wind Speed Wind Dir Waves Ship Positions

W. J. Authement

Owner: LeBeouf Bros. Towing, LLC, Houma, LA. More information available from US FCC via Universal Licensing System and Coast Guard Vessel Documentation Center.

Last reported at 2017-Dec-11 05:42 UTC. Time now 2017-Dec-12 06:27 UTC.
Position N 29°42' W 095°03'.

Length 24 m; draft 3 m.

Type: Tug. MMSI: 367398380.

Date/timePositionNaut miles runAvg speedWind from/ knotsBaromVisibWave heightAir tempDewpointWater temp
2017-Dec-11 05:42N 29°42' W 095°03'1 2.7
2017-Dec-11 05:28N 29°42' W 095°02'1 1.4
2017-Dec-11 04:29N 29°44' W 095°01'0 0.0
2017-Dec-10 11:56N 29°44' W 095°01'0 0.0
2017-Dec-10 11:00N 29°44' W 095°01'0 0.0
2017-Dec-10 10:27N 29°44' W 095°01'0 0.0
2017-Dec-10 09:57N 29°44' W 095°01'0 0.0
2017-Dec-10 09:26N 29°44' W 095°01'0 0.0
2017-Dec-09 21:24N 29°44' W 095°01'2 1.6
2017-Dec-09 20:23N 29°42' W 095°03'0 0.0
2017-Dec-09 15:07N 29°42' W 095°03'0 0.1
2017-Dec-09 14:55N 29°42' W 095°03'0 0.0
2017-Dec-09 13:19N 29°42' W 095°03'0 0.0
2017-Dec-09 12:21N 29°42' W 095°03'0 0.0
2017-Dec-09 11:53N 29°42' W 095°03'0 0.0
2017-Dec-09 10:40N 29°42' W 095°03'0 0.0
2017-Dec-09 10:21N 29°42' W 095°03'0 0.0
2017-Dec-09 10:00N 29°42' W 095°03'0 0.0
2017-Dec-09 09:30N 29°42' W 095°03'0 0.0
2017-Dec-09 08:59N 29°42' W 095°03'0 0.0
2017-Dec-09 08:30N 29°42' W 095°03'0 0.0
2017-Dec-09 08:00N 29°42' W 095°03'0 0.0
2017-Dec-09 07:30N 29°42' W 095°03'0 0.0
2017-Dec-09 07:00N 29°42' W 095°03'0 0.0
2017-Dec-09 06:30N 29°42' W 095°03'0 0.0
2017-Dec-09 05:47N 29°42' W 095°03'0 0.0
2017-Dec-09 05:30N 29°42' W 095°03'0 0.0
2017-Dec-09 04:54N 29°42' W 095°03'0 0.0
2017-Dec-09 04:28N 29°42' W 095°03'0 0.0
2017-Dec-08 23:07N 29°42' W 095°03'0 0.0
2017-Dec-08 23:00N 29°42' W 095°03'0 0.0
2017-Dec-08 22:30N 29°42' W 095°03'0 0.0
2017-Dec-08 18:50N 29°42' W 095°03'0 0.2
2017-Dec-08 18:30N 29°42' W 095°03'0 0.0
2017-Dec-08 13:31N 29°42' W 095°03'0 0.0
2017-Dec-08 13:07N 29°42' W 095°03'0 0.0
2017-Dec-08 12:52N 29°42' W 095°03'0 0.0
2017-Dec-08 12:19N 29°42' W 095°03'0 0.0
2017-Dec-08 11:52N 29°42' W 095°03'0 0.0
2017-Dec-08 11:18N 29°42' W 095°03'0 0.0
2017-Dec-08 10:05N 29°42' W 095°03'0 0.0
2017-Dec-08 09:49N 29°42' W 095°03'0 0.0
2017-Dec-08 08:10N 29°42' W 095°03'0 0.0
2017-Dec-08 07:47N 29°42' W 095°03'0 0.0
2017-Dec-08 07:29N 29°42' W 095°03'0 0.0
2017-Dec-08 06:57N 29°42' W 095°03'0 0.0
2017-Dec-08 06:26N 29°42' W 095°03'0 0.0
2017-Dec-08 05:47N 29°42' W 095°03'0 0.0
2017-Dec-08 05:25N 29°42' W 095°03'0 0.0
2017-Dec-07 20:37N 29°42' W 095°03'0 0.0
2017-Dec-07 17:44N 29°42' W 095°03'0 0.0
2017-Dec-07 17:22N 29°42' W 095°03'0 0.0
2017-Dec-07 16:13N 29°42' W 095°03'0 0.0
2017-Dec-07 15:04N 29°42' W 095°03'0 0.0
2017-Dec-07 14:54N 29°42' W 095°03'0 0.0
2017-Dec-07 12:14N 29°42' W 095°03'0 0.0
2017-Dec-07 10:15N 29°42' W 095°03'  
2017-Dec-04 09:09N 29°44' W 095°08'0 0.0
2017-Dec-04 02:49N 29°44' W 095°08'0 0.1
2017-Dec-04 02:30N 29°44' W 095°08'0 0.0
2017-Dec-04 02:00N 29°44' W 095°08'0 0.0
2017-Dec-04 01:30N 29°44' W 095°08'0 0.0
2017-Dec-04 00:59N 29°44' W 095°08'0 0.0
2017-Dec-04 00:30N 29°44' W 095°08'0 0.0
2017-Dec-04 00:00N 29°44' W 095°08'0 0.0
2017-Dec-03 23:31N 29°44' W 095°08'0 0.0
2017-Dec-03 17:54N 29°44' W 095°08'4 0.4
2017-Dec-03 09:27N 29°45' W 095°04'4 4.6
2017-Dec-03 08:35N 29°42' W 095°01'1 3.3
2017-Dec-03 08:12N 29°42' W 095°03'0 0.0
2017-Dec-02 09:44N 29°42' W 095°03'0 0.1
2017-Dec-02 07:00N 29°43' W 095°03'2 4.1
2017-Dec-02 06:26N 29°42' W 095°00'3 6.4
2017-Dec-02 06:00N 29°40' W 094°58'4 6.9
2017-Dec-02 05:29N 29°36' W 094°57'  
Track history (hours):
 
Tides and Currents Weather Stations Pressure Air Temp Water Temp Dewpoint Dewpoint Depression Visibility Wind Speed Wind Dir Waves Ship Positions

W. J. Authement

Owner: LeBeouf Bros. Towing, LLC, Houma, LA. More information available from US FCC via Universal Licensing System and Coast Guard Vessel Documentation Center.

Last reported at 2017-Dec-11 05:42 UTC. Time now 2017-Dec-12 06:27 UTC.
Position N 29°42' W 095°03'.

Length 24 m; draft 3 m.

Type: Tug. MMSI: 367398380.

Date/timePositionNaut miles runAvg speedWind from/ knotsBaromVisibWave heightAir tempDewpointWater temp
2017-Dec-11 05:42N 29°42' W 095°03'1 2.7
2017-Dec-11 05:28N 29°42' W 095°02'1 1.4
2017-Dec-11 04:29N 29°44' W 095°01'0 0.0
2017-Dec-10 11:56N 29°44' W 095°01'0 0.0
2017-Dec-10 11:00N 29°44' W 095°01'0 0.0
2017-Dec-10 10:27N 29°44' W 095°01'0 0.0
2017-Dec-10 09:57N 29°44' W 095°01'0 0.0
2017-Dec-10 09:26N 29°44' W 095°01'0 0.0
2017-Dec-09 21:24N 29°44' W 095°01'2 1.6
2017-Dec-09 20:23N 29°42' W 095°03'0 0.0
2017-Dec-09 15:07N 29°42' W 095°03'0 0.1
2017-Dec-09 14:55N 29°42' W 095°03'0 0.0
2017-Dec-09 13:19N 29°42' W 095°03'0 0.0
2017-Dec-09 12:21N 29°42' W 095°03'0 0.0
2017-Dec-09 11:53N 29°42' W 095°03'0 0.0
2017-Dec-09 10:40N 29°42' W 095°03'0 0.0
2017-Dec-09 10:21N 29°42' W 095°03'0 0.0
2017-Dec-09 10:00N 29°42' W 095°03'0 0.0
2017-Dec-09 09:30N 29°42' W 095°03'0 0.0
2017-Dec-09 08:59N 29°42' W 095°03'0 0.0
2017-Dec-09 08:30N 29°42' W 095°03'0 0.0
2017-Dec-09 08:00N 29°42' W 095°03'0 0.0
2017-Dec-09 07:30N 29°42' W 095°03'0 0.0
2017-Dec-09 07:00N 29°42' W 095°03'0 0.0
2017-Dec-09 06:30N 29°42' W 095°03'0 0.0
2017-Dec-09 05:47N 29°42' W 095°03'0 0.0
2017-Dec-09 05:30N 29°42' W 095°03'0 0.0
2017-Dec-09 04:54N 29°42' W 095°03'0 0.0
2017-Dec-09 04:28N 29°42' W 095°03'0 0.0
2017-Dec-08 23:07N 29°42' W 095°03'0 0.0
2017-Dec-08 23:00N 29°42' W 095°03'0 0.0
2017-Dec-08 22:30N 29°42' W 095°03'0 0.0
2017-Dec-08 18:50N 29°42' W 095°03'0 0.2
2017-Dec-08 18:30N 29°42' W 095°03'0 0.0
2017-Dec-08 13:31N 29°42' W 095°03'0 0.0
2017-Dec-08 13:07N 29°42' W 095°03'0 0.0
2017-Dec-08 12:52N 29°42' W 095°03'0 0.0
2017-Dec-08 12:19N 29°42' W 095°03'0 0.0
2017-Dec-08 11:52N 29°42' W 095°03'0 0.0
2017-Dec-08 11:18N 29°42' W 095°03'0 0.0
2017-Dec-08 10:05N 29°42' W 095°03'0 0.0
2017-Dec-08 09:49N 29°42' W 095°03'0 0.0
2017-Dec-08 08:10N 29°42' W 095°03'0 0.0
2017-Dec-08 07:47N 29°42' W 095°03'0 0.0
2017-Dec-08 07:29N 29°42' W 095°03'0 0.0
2017-Dec-08 06:57N 29°42' W 095°03'0 0.0
2017-Dec-08 06:26N 29°42' W 095°03'0 0.0
2017-Dec-08 05:47N 29°42' W 095°03'0 0.0
2017-Dec-08 05:25N 29°42' W 095°03'0 0.0
2017-Dec-07 20:37N 29°42' W 095°03'0 0.0
2017-Dec-07 17:44N 29°42' W 095°03'0 0.0
2017-Dec-07 17:22N 29°42' W 095°03'0 0.0
2017-Dec-07 16:13N 29°42' W 095°03'0 0.0
2017-Dec-07 15:04N 29°42' W 095°03'0 0.0
2017-Dec-07 14:54N 29°42' W 095°03'0 0.0
2017-Dec-07 12:14N 29°42' W 095°03'0 0.0
2017-Dec-07 10:15N 29°42' W 095°03'  
2017-Dec-04 09:09N 29°44' W 095°08'0 0.0
2017-Dec-04 02:49N 29°44' W 095°08'0 0.1
2017-Dec-04 02:30N 29°44' W 095°08'0 0.0
2017-Dec-04 02:00N 29°44' W 095°08'0 0.0
2017-Dec-04 01:30N 29°44' W 095°08'0 0.0
2017-Dec-04 00:59N 29°44' W 095°08'0 0.0
2017-Dec-04 00:30N 29°44' W 095°08'0 0.0
2017-Dec-04 00:00N 29°44' W 095°08'0 0.0
2017-Dec-03 23:31N 29°44' W 095°08'0 0.0
2017-Dec-03 17:54N 29°44' W 095°08'4 0.4
2017-Dec-03 09:27N 29°45' W 095°04'4 4.6
2017-Dec-03 08:35N 29°42' W 095°01'1 3.3
2017-Dec-03 08:12N 29°42' W 095°03'0 0.0
2017-Dec-02 09:44N 29°42' W 095°03'0 0.1
2017-Dec-02 07:00N 29°43' W 095°03'2 4.1
2017-Dec-02 06:26N 29°42' W 095°00'3 6.4
2017-Dec-02 06:00N 29°40' W 094°58'4 6.9
2017-Dec-02 05:29N 29°36' W 094°57'  

Dump ship's entire track history